Time;durP1;ratioP1;P1;durP2;ratioP2;P2;SDS_P1;SDS_P2;PMS_P1;PMS_P2;Temp;Humidity;BMP_temperature;BMP_pressure;BME280_temperature;BME280_humidity;BME280_pressure;Samples;Min_cycle;Max_cycle;Signal;HPM_P1;HPM_P2
2023/01/08 00:02:09;;;;;;;4.63;2.05;;;9.50;99.90;;;7.79;89.77;99761.47;5011741;28;20038;-74
2023/01/08 00:04:35;;;;;;;4.32;2.08;;;9.30;99.90;;;7.68;91.41;99768.44;5014290;28;20038;-75
2023/01/08 00:07:01;;;;;;;5.13;2.05;;;9.30;99.90;;;7.72;90.79;99787.84;5011632;28;20172;-75
2023/01/08 00:09:27;;;;;;;4.00;1.95;;;9.20;99.90;;;7.70;91.95;99789.94;5011214;28;20129;-75
2023/01/08 00:11:52;;;;;;;5.25;2.30;;;9.20;99.90;;;7.69;92.14;99786.38;5011557;28;20030;-75
2023/01/08 00:14:18;;;;;;;3.35;1.98;;;9.20;99.90;;;7.70;91.52;99788.03;5011511;28;20072;-75
2023/01/08 00:16:44;;;;;;;3.47;2.05;;;9.20;99.90;;;7.74;91.07;99769.44;5002863;28;20458;-74
2023/01/08 00:19:11;;;;;;;4.20;2.30;;;9.20;99.90;;;7.80;91.12;99756.84;5000997;28;20066;-74
2023/01/08 00:21:37;;;;;;;4.33;2.20;;;9.30;99.90;;;7.82;91.02;99768.31;5003170;28;20882;-74
2023/01/08 00:24:03;;;;;;;4.15;2.20;;;9.30;99.90;;;7.78;91.23;99778.81;5007195;28;20299;-74
2023/01/08 00:26:29;;;;;;;4.60;2.00;;;9.30;99.90;;;7.81;90.81;99770.22;5004585;28;20037;-74
2023/01/08 00:28:55;;;;;;;4.90;2.20;;;9.30;99.90;;;7.86;89.83;99756.00;5009853;28;20141;-74
2023/01/08 00:31:20;;;;;;;4.22;2.30;;;9.30;99.90;;;7.83;90.80;99740.97;5002259;28;20034;-74
2023/01/08 00:33:46;;;;;;;4.07;2.40;;;9.30;99.90;;;7.82;90.27;99728.44;5005300;28;20084;-74
2023/01/08 00:36:16;;;;;;;3.88;2.20;;;9.30;99.90;;;7.80;91.12;99744.13;5007168;28;20060;-75
2023/01/08 00:38:43;;;;;;;4.40;2.63;;;9.30;99.90;;;7.70;92.08;99749.22;5000506;28;20023;-76
2023/01/08 00:41:09;;;;;;;3.10;2.00;;;9.30;99.90;;;7.67;92.34;99747.75;4998350;28;20462;-76
2023/01/08 00:43:35;;;;;;;3.67;2.20;;;9.20;99.90;;;7.53;93.51;99743.47;5011336;28;20042;-76
2023/01/08 00:46:02;;;;;;;4.28;2.70;;;9.10;99.90;;;7.58;92.99;99758.06;5009906;28;20304;-76
2023/01/08 00:48:27;;;;;;;4.72;2.30;;;9.10;99.90;;;7.54;92.99;99748.69;5007183;28;20492;-76
2023/01/08 00:50:53;;;;;;;4.65;2.70;;;9.10;99.90;;;7.56;93.28;99749.28;5002619;28;20034;-76
2023/01/08 00:53:21;;;;;;;3.53;2.38;;;9.10;99.90;;;7.51;93.82;99729.28;5000175;28;20199;-76
2023/01/08 00:55:48;;;;;;;3.88;2.10;;;9.00;99.90;;;7.56;93.27;99743.88;5012556;28;20029;-76
2023/01/08 00:58:15;;;;;;;4.75;2.30;;;9.00;99.90;;;7.51;93.94;99734.72;5013009;28;20064;-76
2023/01/08 01:00:40;;;;;;;3.35;2.20;;;9.00;99.90;;;7.42;94.70;99724.13;5015277;28;20050;-76
2023/01/08 01:03:06;;;;;;;4.68;2.80;;;9.00;99.90;;;7.42;95.19;99734.97;5004905;28;20041;-76
2023/01/08 01:05:32;;;;;;;4.38;2.28;;;8.90;99.90;;;7.55;93.98;99742.22;5028868;28;20030;-76
2023/01/08 01:07:58;;;;;;;4.63;2.50;;;9.00;99.90;;;7.65;93.57;99735.44;4993592;28;20401;-76
2023/01/08 01:10:23;;;;;;;5.07;2.53;;;9.10;99.90;;;7.68;93.24;99738.56;5006498;28;20072;-75
2023/01/08 01:12:49;;;;;;;4.30;2.58;;;9.20;99.90;;;7.80;92.30;99729.69;5010503;28;20172;-75
2023/01/08 01:15:17;;;;;;;3.53;2.25;;;9.20;99.90;;;7.87;91.82;99719.63;5004970;28;20121;-75
2023/01/08 01:17:45;;;;;;;4.43;2.08;;;9.40;99.90;;;7.87;91.68;99711.50;5002048;28;20041;-75
2023/01/08 01:20:14;;;;;;;;;;;9.40;99.90;;;7.87;92.06;99717.75;5009464;28;20046;-74
2023/01/08 01:22:41;;;;;;;5.78;2.35;;;9.40;99.90;;;7.83;92.39;99705.66;4998816;28;19922;-75
2023/01/08 01:25:08;;;;;;;3.00;1.92;;;9.30;99.90;;;7.84;92.52;99715.47;5002402;28;20048;-75
2023/01/08 01:27:33;;;;;;;5.85;2.70;;;9.40;99.90;;;7.78;93.30;99716.34;4994909;28;20512;-76
2023/01/08 01:29:59;;;;;;;3.83;2.30;;;9.30;99.90;;;7.75;94.03;99719.53;5005811;28;20038;-75
2023/01/08 01:32:25;;;;;;;4.68;2.58;;;9.30;99.90;;;7.74;93.05;99715.16;5005937;28;20102;-75
2023/01/08 01:34:51;;;;;;;4.22;2.47;;;9.30;99.90;;;7.75;93.19;99720.34;5006837;28;20045;-75
2023/01/08 01:37:17;;;;;;;4.55;2.88;;;9.30;99.90;;;7.82;92.86;99719.44;4993543;28;20445;-75
2023/01/08 01:39:42;;;;;;;5.55;3.08;;;9.30;99.90;;;7.81;93.01;99710.47;5010425;28;20042;-75
2023/01/08 01:43:00;;;;;;;5.63;2.80;;;9.40;99.90;;;7.92;92.58;99709.75;5005555;28;20039;-75
2023/01/08 01:45:21;;;;;;;5.25;2.70;;;9.40;99.90;;;7.99;92.29;99711.59;5004261;28;20061;-75
2023/01/08 01:47:58;;;;;;;5.25;2.72;;;9.50;99.90;;;7.99;92.01;99709.69;5003339;28;20140;-75
2023/01/08 01:50:35;;;;;;;5.40;2.83;;;9.50;99.90;;;8.01;91.71;99706.78;5007765;28;20041;-75
2023/01/08 01:53:05;;;;;;;5.80;2.80;;;9.50;99.90;;;8.01;91.73;99706.78;5005833;28;20124;-75
2023/01/08 01:55:34;;;;;;;5.32;2.70;;;9.50;99.90;;;8.09;91.21;99721.94;5010001;28;20049;-75
2023/01/08 01:58:22;;;;;;;5.60;2.90;;;9.50;99.90;;;8.03;91.82;99729.09;5009725;28;20044;-75
2023/01/08 02:00:49;;;;;;;4.95;2.90;;;9.50;99.90;;;8.00;92.13;99721.41;5009577;28;20038;-75
2023/01/08 02:03:21;;;;;;;4.28;2.53;;;9.50;99.90;;;8.04;91.84;99728.88;4992408;28;20042;-74
2023/01/08 02:06:25;;;;;;;5.57;3.40;;;9.50;99.90;;;8.11;91.53;99717.94;5012460;28;20430;-74
2023/01/08 02:09:01;;;;;;;5.65;3.05;;;9.60;99.90;;;8.15;91.35;99713.72;5006453;28;20042;-75
2023/01/08 02:12:18;;;;;;;7.43;3.22;;;9.60;99.90;;;8.15;91.35;99696.59;5003717;28;20513;-74
2023/01/08 02:15:33;;;;;;;4.03;2.70;;;9.60;99.90;;;8.16;91.00;99692.84;5008431;28;20505;-74
2023/01/08 02:18:18;;;;;;;5.03;3.10;;;9.60;99.90;;;8.03;92.91;99688.38;4952683;28;20395;-74
2023/01/08 02:20:58;;;;;;;6.03;4.07;;;9.50;99.90;;;8.06;91.93;99685.19;5006161;28;20113;-74
2023/01/08 02:23:56;;;;;;;4.90;3.28;;;9.50;99.90;;;8.02;92.13;99681.28;5003614;28;20057;-75
2023/01/08 02:26:30;;;;;;;6.45;3.30;;;9.50;99.90;;;8.07;91.55;99684.13;5013222;28;20133;-74
2023/01/08 02:29:08;;;;;;;5.10;3.30;;;9.50;99.90;;;8.06;92.13;99690.63;5009458;28;20121;-74
2023/01/08 02:31:39;;;;;;;5.75;3.13;;;9.60;99.90;;;8.05;92.45;99697.13;4997760;28;20026;-74
2023/01/08 02:34:05;;;;;;;5.03;3.13;;;9.50;99.90;;;8.06;92.76;99694.16;5002923;28;20042;-75
2023/01/08 02:36:51;;;;;;;5.45;3.13;;;9.50;99.90;;;8.11;92.69;99695.41;4996360;28;20045;-74
2023/01/08 02:39:51;;;;;;;5.68;3.00;;;9.60;99.90;;;8.13;92.17;99688.66;4996834;28;20034;-74
2023/01/08 02:42:30;;;;;;;5.78;3.20;;;9.60;99.90;;;8.16;92.29;99682.78;4996826;28;20220;-75
2023/01/08 02:45:39;;;;;;;6.03;3.08;;;9.60;99.90;;;8.21;91.70;99690.28;4996158;28;20441;-75
2023/01/08 02:48:22;;;;;;;5.53;3.30;;;9.70;99.90;;;8.21;91.71;99688.38;4995031;28;20116;-74
2023/01/08 02:50:57;;;;;;;5.57;3.20;;;9.70;99.90;;;8.23;91.85;99695.50;4995127;28;20081;-75
2023/01/08 02:53:32;;;;;;;6.50;3.70;;;9.70;99.90;;;8.24;90.70;99686.28;4997093;28;20045;-75
2023/01/08 02:56:06;;;;;;;5.63;3.50;;;9.80;99.90;;;8.26;91.32;99678.75;4996069;28;20479;-75
2023/01/08 02:58:35;;;;;;;6.05;3.47;;;9.80;99.90;;;8.29;90.79;99686.44;4995719;28;20061;-75
2023/01/08 03:01:05;;;;;;;5.40;3.13;;;9.80;99.90;;;8.28;91.12;99685.59;4993753;28;20045;-76
2023/01/08 03:03:33;;;;;;;5.00;3.03;;;9.80;99.90;;;8.30;91.03;99675.31;5011587;28;20030;-75
2023/01/08 03:06:05;;;;;;;6.32;3.28;;;9.80;99.90;;;8.26;91.87;99695.03;4995898;28;20042;-76
2023/01/08 03:08:37;;;;;;;7.20;3.40;;;9.70;99.90;;;8.25;92.05;99690.66;4995455;28;20046;-76
2023/01/08 03:11:11;;;;;;;5.45;3.55;;;9.70;99.90;;;8.27;91.72;99699.41;5004670;28;20088;-75
2023/01/08 03:13:46;;;;;;;5.97;3.30;;;9.70;99.90;;;8.26;92.05;99695.03;5012678;28;20046;-76
2023/01/08 03:16:20;;;;;;;5.72;3.60;;;9.80;99.90;;;8.31;91.79;99700.63;4996176;28;20218;-76
2023/01/08 03:18:57;;;;;;;5.65;3.45;;;9.80;99.90;;;8.33;91.89;99690.34;4996224;28;20070;-77
2023/01/08 03:21:24;;;;;;;5.30;3.25;;;9.80;99.90;;;8.37;91.58;99690.75;4995396;28;20623;-76
2023/01/08 03:23:50;;;;;;;9.93;3.50;;;9.80;99.90;;;8.35;91.37;99696.41;5010395;28;20087;-76
2023/01/08 03:26:25;;;;;;;5.20;3.60;;;9.80;99.90;;;8.37;91.44;99693.47;4996164;28;20034;-75
2023/01/08 03:28:56;;;;;;;6.35;3.67;;;9.80;99.90;;;8.39;91.41;99700.31;4994974;28;20141;-76
2023/01/08 03:31:27;;;;;;;5.10;3.50;;;9.80;99.90;;;8.39;91.32;99694.88;4995149;28;20042;-75
2023/01/08 03:33:55;;;;;;;5.18;3.38;;;9.90;99.90;;;8.46;91.18;99683.94;5001683;28;20117;-75
2023/01/08 03:36:26;;;;;;;8.13;3.50;;;9.90;99.90;;;8.49;90.97;99664.47;4995185;28;20050;-75
2023/01/08 03:39:16;;;;;;;5.80;3.38;;;9.90;99.90;;;8.46;90.94;99654.03;4997770;28;20085;-76
2023/01/08 03:41:41;;;;;;;5.10;3.33;;;9.90;99.90;;;8.47;90.92;99659.25;4996964;28;20037;-76
2023/01/08 03:44:07;;;;;;;5.45;3.30;;;9.90;99.90;;;8.52;90.66;99657.78;4999134;28;20049;-76
2023/01/08 03:46:41;;;;;;;5.95;3.28;;;10.00;99.90;;;8.47;91.87;99651.09;4995784;28;20049;-76
2023/01/08 03:49:09;;;;;;;6.07;3.47;;;9.90;99.90;;;8.46;91.72;99657.56;4994960;28;20418;-76
2023/01/08 03:51:43;;;;;;;;;;;9.90;99.90;;;8.42;92.42;99655.56;4994176;28;20039;-76
2023/01/08 03:54:18;;;;;;;4.88;2.90;;;9.90;99.90;;;8.41;92.57;99653.91;5012461;28;19917;-76
2023/01/08 03:56:44;;;;;;;5.55;3.13;;;9.90;99.90;;;8.38;93.01;99663.31;5004280;28;20073;-76
2023/01/08 03:59:14;;;;;;;5.00;2.95;;;9.80;99.90;;;8.38;93.37;99659.78;5001781;28;20034;-76
2023/01/08 04:01:40;;;;;;;4.97;2.97;;;9.80;99.90;;;8.27;94.04;99647.78;5000920;28;20042;-77
2023/01/08 04:04:07;;;;;;;6.05;3.10;;;9.80;99.90;;;8.33;93.65;99658.56;5002828;28;20505;-76
2023/01/08 04:06:33;;;;;;;4.65;2.95;;;9.80;99.90;;;8.26;94.21;99649.66;4995411;28;20048;-76
2023/01/08 04:08:59;;;;;;;4.60;3.10;;;9.70;99.90;;;8.21;94.67;99650.31;5000153;28;20042;-77
2023/01/08 04:11:24;;;;;;;6.10;3.05;;;9.70;99.90;;;8.26;94.67;99648.84;4999979;28;20181;-76
2023/01/08 04:13:50;;;;;;;5.75;3.60;;;9.70;99.90;;;8.25;94.97;99647.19;5001878;28;20041;-77
2023/01/08 04:16:16;;;;;;;4.65;2.85;;;9.70;99.90;;;8.27;94.63;99650.50;4995669;28;20039;-77
2023/01/08 04:18:41;;;;;;;5.05;3.08;;;9.70;99.90;;;8.23;94.67;99633.00;4996193;28;20037;-77
2023/01/08 04:21:07;;;;;;;8.35;3.30;;;9.70;99.90;;;8.25;95.20;99647.19;4995467;28;20042;-77
2023/01/08 04:23:33;;;;;;;4.85;2.58;;;9.70;99.90;;;8.18;95.81;99650.78;5002267;28;20034;-77
2023/01/08 04:26:02;;;;;;;4.57;2.58;;;9.70;99.90;;;8.12;97.02;99646.25;4994787;28;20033;-76
2023/01/08 04:28:29;;;;;;;6.03;2.95;;;9.60;99.90;;;8.06;97.61;99637.13;4995714;28;20049;-76
2023/01/08 04:30:55;;;;;;;5.82;3.10;;;9.50;99.90;;;8.11;97.22;99630.19;4998106;28;20034;-76
2023/01/08 04:33:21;;;;;;;5.50;3.00;;;9.60;99.90;;;8.03;99.07;99628.59;4994623;28;20065;-75
2023/01/08 04:35:46;;;;;;;5.43;2.60;;;9.50;99.90;;;8.09;98.70;99627.69;4992957;28;20119;-76
2023/01/08 04:38:12;;;;;;;4.85;2.80;;;9.50;99.90;;;8.17;97.53;99613.81;4994315;28;20054;-75
2023/01/08 04:40:38;;;;;;;5.88;3.05;;;9.60;99.90;;;8.11;97.90;99616.63;4994446;28;20061;-76
2023/01/08 04:43:03;;;;;;;5.88;2.97;;;9.60;99.90;;;8.00;99.19;99616.28;5001164;28;20096;-75
2023/01/08 04:45:29;;;;;;;8.50;3.13;;;9.50;99.90;;;7.87;100.00;99614.53;5007395;28;20063;-78
2023/01/08 04:47:57;;;;;;;4.80;3.30;;;9.50;99.90;;;7.78;100.00;99621.31;4994201;28;20034;-76
2023/01/08 04:50:23;;;;;;;5.05;3.40;;;9.30;99.90;;;7.67;100.00;99609.31;4994773;28;20049;-76
2023/01/08 04:52:48;;;;;;;6.78;3.80;;;9.30;99.90;;;7.57;100.00;99609.00;5007902;28;20133;-76
2023/01/08 04:55:14;;;;;;;5.88;3.88;;;9.20;99.90;;;7.51;100.00;99610.72;4993054;28;20050;-76
2023/01/08 04:57:40;;;;;;;5.97;3.50;;;9.10;99.90;;;7.53;100.00;99614.03;4994917;28;20118;-76
2023/01/08 05:00:07;;;;;;;5.65;3.33;;;9.00;99.90;;;7.59;100.00;99598.75;4994411;28;20556;-77
2023/01/08 05:02:33;;;;;;;5.85;3.20;;;9.10;99.90;;;7.71;100.00;99605.09;4993942;28;20038;-77
2023/01/08 05:04:59;;;;;;;4.93;3.05;;;9.10;99.90;;;7.79;100.00;99598.53;5000219;28;20045;-76
2023/01/08 05:07:24;;;;;;;5.30;3.05;;;9.20;99.90;;;7.74;100.00;99603.81;4994878;28;20030;-76
2023/01/08 05:09:51;;;;;;;4.65;2.90;;;9.30;99.90;;;7.63;100.00;99606.19;5001046;28;20042;-77
2023/01/08 05:12:16;;;;;;;5.80;2.90;;;9.20;99.90;;;7.58;100.00;99605.22;4994002;28;20042;-75
2023/01/08 05:14:42;;;;;;;6.93;3.25;;;9.10;99.90;;;7.52;100.00;99606.94;5008492;28;20031;-76
2023/01/08 05:17:08;;;;;;;4.40;2.80;;;9.10;99.90;;;7.49;100.00;99600.06;4992987;28;20516;-76
2023/01/08 05:19:33;;;;;;;4.85;3.10;;;9.10;99.90;;;7.41;100.00;99602.22;4991534;28;20037;-76
2023/01/08 05:21:59;;;;;;;6.18;3.03;;;9.00;99.90;;;7.40;100.00;99603.28;4991734;28;20509;-76
2023/01/08 05:24:25;;;;;;;5.40;2.88;;;9.00;99.90;;;7.31;100.00;99603.56;4998781;28;20038;-76
2023/01/08 05:26:51;;;;;;;6.60;3.20;;;8.90;99.90;;;7.27;100.00;99596.06;4993321;28;20061;-77
2023/01/08 05:29:16;;;;;;;5.05;2.65;;;8.90;99.90;;;7.25;100.00;99595.47;4994177;28;20124;-76
2023/01/08 05:31:42;;;;;;;6.13;3.22;;;8.80;99.90;;;7.20;100.00;99601.56;5006115;28;20055;-77
2023/01/08 05:34:08;;;;;;;7.90;3.50;;;8.70;99.90;;;7.22;100.00;99596.75;4993612;28;20509;-77
2023/01/08 05:36:34;;;;;;;4.57;3.13;;;8.70;99.90;;;7.18;100.00;99590.09;4993498;28;20121;-77
2023/01/08 05:38:59;;;;;;;6.60;3.35;;;8.70;99.90;;;7.16;100.00;99586.75;5008466;28;20117;-77
2023/01/08 05:41:25;;;;;;;5.55;3.45;;;8.70;99.90;;;7.17;100.00;99593.88;4992418;28;20037;-77
2023/01/08 05:43:51;;;;;;;5.82;3.38;;;8.60;99.90;;;7.13;100.00;99579.06;5002621;28;20409;-77
2023/01/08 05:46:16;;;;;;;4.78;3.33;;;8.60;99.90;;;7.13;100.00;99598.91;4998867;28;20038;-77
2023/01/08 05:48:42;;;;;;;6.55;3.50;;;8.60;99.90;;;6.99;100.00;99571.03;4993094;28;20042;-77
2023/01/08 05:51:08;;;;;;;6.13;3.30;;;8.60;99.90;;;7.14;100.00;99586.16;4993441;28;20559;-76
2023/01/08 05:53:34;;;;;;;6.15;2.92;;;8.60;99.90;;;7.18;100.00;99590.91;4991238;28;20058;-75
2023/01/08 05:56:06;;;;;;;7.10;3.38;;;8.60;99.90;;;7.13;100.00;99588.03;4993527;28;20039;-75
2023/01/08 05:58:32;;;;;;;4.88;3.28;;;8.60;99.90;;;7.14;100.00;99583.44;5007935;28;20121;-75
2023/01/08 06:01:11;;;;;;;8.95;3.67;;;8.60;99.90;;;7.08;100.00;99589.75;4993204;28;20508;-76
2023/01/08 06:03:38;;;;;;;5.70;3.13;;;8.60;99.90;;;7.09;100.00;99575.13;5008139;28;20486;-75
2023/01/08 06:06:06;;;;;;;5.95;3.03;;;8.60;99.90;;;7.11;100.00;99586.59;5008472;28;20054;-74
2023/01/08 06:08:34;;;;;;;7.22;3.92;;;8.60;99.90;;;7.06;100.00;99584.56;5000054;28;20046;-75
2023/01/08 06:11:06;;;;;;;6.07;3.83;;;8.60;99.90;;;7.03;100.00;99585.00;4993350;28;20066;-75
2023/01/08 06:13:34;;;;;;;5.90;3.58;;;8.50;99.90;;;7.05;100.00;99567.44;4993600;28;20470;-75
2023/01/08 06:16:01;;;;;;;6.47;3.50;;;8.60;99.90;;;7.10;100.00;99565.94;4992888;28;20613;-75
2023/01/08 06:18:28;;;;;;;7.40;4.00;;;8.60;99.90;;;7.12;100.00;99569.25;4993604;28;20385;-75
2023/01/08 06:20:55;;;;;;;6.22;3.60;;;8.60;99.90;;;7.09;100.00;99565.13;4992951;28;20053;-75
2023/01/08 06:23:20;;;;;;;6.15;3.75;;;8.60;99.90;;;7.10;100.00;99566.78;4999681;28;20121;-75
2023/01/08 06:25:52;;;;;;;5.85;3.78;;;8.60;99.90;;;7.10;100.00;99555.94;4993339;28;20060;-76
2023/01/08 06:28:18;;;;;;;5.30;3.33;;;8.60;99.90;;;7.16;100.00;99565.06;4993398;28;20034;-75
2023/01/08 06:30:44;;;;;;;5.32;3.33;;;8.60;99.90;;;7.18;100.00;99563.78;4992635;28;20056;-75
2023/01/08 06:33:10;;;;;;;6.43;3.70;;;8.70;99.90;;;7.19;100.00;99564.63;5005785;28;20038;-76
2023/01/08 06:35:35;;;;;;;7.10;4.22;;;8.70;99.90;;;7.16;100.00;99563.19;4993205;28;20450;-75
2023/01/08 06:38:01;;;;;;;6.43;3.63;;;8.70;99.90;;;7.11;100.00;99559.47;4993430;28;20037;-76
2023/01/08 06:40:27;;;;;;;5.80;3.58;;;8.60;99.90;;;7.05;100.00;99548.47;4993248;28;20067;-75
2023/01/08 06:42:52;;;;;;;6.50;3.38;;;8.60;99.90;;;7.10;100.00;99557.81;4992933;28;20355;-76
2023/01/08 06:45:18;;;;;;;6.45;3.55;;;8.60;99.90;;;7.08;100.00;99551.78;4992940;28;20599;-75
2023/01/08 06:47:44;;;;;;;6.82;4.10;;;8.60;99.90;;;6.99;100.00;99559.34;4992180;28;20077;-76
2023/01/08 06:50:11;;;;;;;6.75;3.80;;;8.50;99.90;;;7.01;100.00;99555.38;4992766;28;20041;-75
2023/01/08 06:52:37;;;;;;;6.43;3.75;;;8.50;99.90;;;6.96;100.00;99566.06;5006919;28;20034;-75
2023/01/08 06:55:04;;;;;;;6.68;3.90;;;8.50;99.90;;;6.97;100.00;99559.59;4995770;28;20034;-76
2023/01/08 06:57:30;;;;;;;6.30;3.60;;;8.50;99.90;;;6.96;100.00;99565.22;4994465;28;20085;-75
2023/01/08 06:59:56;;;;;;;6.60;3.90;;;8.40;99.90;;;6.92;100.00;99559.41;5000672;28;20065;-76
2023/01/08 07:02:22;;;;;;;5.95;3.80;;;8.40;99.90;;;6.92;100.00;99567.56;4996275;28;20049;-76
2023/01/08 07:04:47;;;;;;;5.07;3.38;;;8.40;99.90;;;6.86;100.00;99560.28;5016959;28;20032;-76
2023/01/08 07:07:14;;;;;;;9.35;4.25;;;8.40;99.90;;;6.87;100.00;99573.63;4996793;28;20374;-76
2023/01/08 07:09:43;;;;;;;6.45;3.55;;;8.40;99.90;;;6.90;100.00;99573.19;5004241;28;20052;-76
2023/01/08 07:12:13;;;;;;;5.43;3.70;;;8.40;99.90;;;6.90;100.00;99566.94;4995741;28;20136;-76
2023/01/08 07:14:39;;;;;;;5.80;3.60;;;8.40;99.90;;;6.90;100.00;99565.03;4995672;28;20409;-75
2023/01/08 07:17:06;;;;;;;6.22;3.35;;;8.40;99.90;;;6.88;100.00;99553.59;5005130;28;20585;-76
2023/01/08 07:19:32;;;;;;;6.80;3.70;;;8.40;99.90;;;6.86;100.00;99554.84;4995667;28;20034;-75
2023/01/08 07:21:58;;;;;;;7.25;3.95;;;8.40;99.90;;;6.84;100.00;99567.78;4995915;28;20475;-75
2023/01/08 07:24:24;;;;;;;6.05;4.28;;;8.40;99.90;;;6.85;100.00;99561.31;5010060;28;20049;-75
2023/01/08 07:26:49;;;;;;;6.00;4.15;;;8.40;99.90;;;6.82;100.00;99559.91;4995334;28;20084;-75
2023/01/08 07:29:15;;;;;;;5.93;4.05;;;8.40;99.90;;;6.81;100.00;99558.25;4995234;28;20120;-74
2023/01/08 07:31:41;;;;;;;5.57;3.70;;;8.40;99.90;;;6.85;100.00;99570.31;4995244;28;20037;-74
2023/01/08 07:34:06;;;;;;;5.90;3.83;;;8.40;99.90;;;6.84;100.00;99568.63;4995221;28;20386;-75
2023/01/08 07:36:32;;;;;;;6.00;4.00;;;8.40;99.90;;;6.85;100.00;99569.44;4989715;28;20118;-74
2023/01/08 07:38:58;;;;;;;7.05;3.90;;;8.40;99.90;;;6.81;100.00;99573.66;4995579;28;20450;-75
2023/01/08 07:41:23;;;;;;;7.50;4.60;;;8.30;99.90;;;6.80;100.00;99577.41;4996663;28;20049;-74
2023/01/08 07:43:49;;;;;;;8.68;4.78;;;8.30;99.90;;;6.80;100.00;99566.56;4998277;28;20474;-76
2023/01/08 07:46:16;;;;;;;7.60;4.88;;;8.40;99.90;;;6.83;100.00;99579.69;5015743;28;20497;-74
2023/01/08 07:48:42;;;;;;;6.88;4.38;;;8.40;99.90;;;6.81;100.00;99576.38;4994861;28;20039;-76
2023/01/08 07:51:08;;;;;;;9.90;4.72;;;8.40;99.90;;;6.79;100.00;99571.19;4992601;28;20085;-75
2023/01/08 07:53:35;;;;;;;8.32;4.75;;;8.40;99.90;;;6.84;100.00;99568.63;4994913;28;20104;-75
2023/01/08 07:56:04;;;;;;;9.38;4.80;;;8.30;99.90;;;6.88;100.00;99574.44;4995626;28;20034;-72
2023/01/08 07:58:30;;;;;;;7.63;4.53;;;8.40;99.90;;;6.82;100.00;99564.47;4999456;28;20031;-73
2023/01/08 08:00:57;;;;;;;7.07;4.80;;;8.40;99.90;;;6.85;100.00;99574.88;4994994;28;20038;-73
2023/01/08 08:03:23;;;;;;;7.18;4.90;;;8.40;99.90;;;6.78;100.00;99564.09;4995174;28;20095;-74
2023/01/08 08:05:49;;;;;;;6.93;4.82;;;8.40;99.90;;;6.80;100.00;99561.16;4994726;28;20022;-74
2023/01/08 08:08:16;;;;;;;6.60;4.57;;;8.40;99.90;;;6.88;100.00;99571.72;4994289;28;20038;-74
2023/01/08 08:10:42;;;;;;;7.45;4.63;;;8.40;99.90;;;6.89;100.00;99571.50;4999517;28;20022;-74
2023/01/08 08:13:09;;;;;;;7.53;4.97;;;8.40;99.90;;;6.90;100.00;99575.06;4994035;28;20124;-74
2023/01/08 08:15:37;;;;;;;7.78;4.90;;;8.40;99.90;;;6.89;100.00;99576.09;4995031;28;20442;-73
2023/01/08 08:18:04;;;;;;;7.13;4.43;;;8.40;99.90;;;6.87;100.00;99551.09;4995391;28;20037;-74
2023/01/08 08:20:31;;;;;;;9.73;5.00;;;8.40;99.90;;;6.90;100.00;99558.81;5010059;28;20387;-73
2023/01/08 08:23:06;;;;;;;7.75;4.40;;;8.40;99.90;;;6.95;100.00;99564.41;4994317;28;20038;-75
2023/01/08 08:25:33;;;;;;;6.72;4.72;;;8.50;99.90;;;6.95;100.00;99553.56;4995260;28;20042;-75
2023/01/08 08:28:01;;;;;;;5.95;4.22;;;8.50;99.90;;;7.01;100.00;99552.66;5009206;28;20034;-74
2023/01/08 08:30:29;;;;;;;;;;;8.50;99.90;;;7.09;100.00;99550.72;5008844;28;20079;-74
2023/01/08 08:32:56;;;;;;;5.53;3.55;;;8.60;99.90;;;7.09;100.00;99546.16;4994693;28;19952;-74
2023/01/08 08:35:22;;;;;;;5.88;3.95;;;8.60;99.90;;;7.12;100.00;99542.13;5006141;28;20492;-73
2023/01/08 08:37:48;;;;;;;7.65;4.25;;;8.60;99.90;;;7.10;100.00;99545.09;4993153;28;20042;-76
2023/01/08 08:40:13;;;;;;;5.95;3.85;;;8.60;99.90;;;7.13;100.00;99544.66;4995229;28;20108;-75
2023/01/08 08:42:39;;;;;;;6.55;4.00;;;8.70;99.90;;;7.17;100.00;99545.03;4994317;28;20061;-75
2023/01/08 08:45:06;;;;;;;8.27;4.53;;;8.70;99.90;;;7.17;100.00;99539.63;4995356;28;20046;-75
2023/01/08 08:47:32;;;;;;;5.47;3.73;;;8.70;99.90;;;7.14;100.00;99538.16;4999168;28;20026;-75
2023/01/08 08:49:57;;;;;;;6.15;3.83;;;8.70;99.90;;;7.19;100.00;99534.81;4994400;28;20038;-74
2023/01/08 08:52:23;;;;;;;6.05;3.55;;;8.70;99.90;;;7.19;100.00;99532.09;4994810;28;20041;-76
2023/01/08 08:54:49;;;;;;;6.13;3.55;;;8.70;99.90;;;7.16;100.00;99511.66;4995502;28;20435;-76
2023/01/08 08:57:15;;;;;;;6.80;3.55;;;8.70;99.90;;;7.27;100.00;99520.94;4997050;28;20042;-75
2023/01/08 08:59:42;;;;;;;5.50;3.60;;;8.80;99.90;;;7.31;100.00;99514.00;4992518;28;20123;-75
2023/01/08 09:02:10;;;;;;;5.40;3.33;;;8.80;99.90;;;7.39;100.00;99517.50;4994520;28;20043;-76
2023/01/08 09:04:36;;;;;;;4.28;2.72;;;8.90;99.90;;;7.39;100.00;99521.03;5008190;28;20049;-76
2023/01/08 09:07:02;;;;;;;4.25;2.95;;;8.90;99.90;;;7.41;100.00;99521.66;4993973;28;20038;-76
2023/01/08 09:09:28;;;;;;;5.43;2.95;;;8.90;99.90;;;7.46;100.00;99513.66;4994129;28;20034;-78
2023/01/08 09:11:54;;;;;;;4.60;2.70;;;9.00;99.90;;;7.61;100.00;99515.19;4993962;28;20030;-75
2023/01/08 09:14:20;;;;;;;4.07;2.55;;;9.00;99.90;;;7.68;100.00;99528.69;4994328;28;20092;-76
2023/01/08 09:16:46;;;;;;;3.78;2.35;;;9.20;99.90;;;7.81;100.00;99533.97;4993456;28;20041;-76
2023/01/08 09:19:12;;;;;;;4.93;2.40;;;9.30;99.90;;;7.94;100.00;99537.59;4993953;28;20486;-76
2023/01/08 09:21:38;;;;;;;3.10;2.22;;;9.40;99.90;;;8.09;100.00;99534.50;5008694;28;20482;-75
2023/01/08 09:24:04;;;;;;;3.35;2.08;;;9.60;99.90;;;8.10;100.00;99539.72;4993915;28;20122;-76
2023/01/08 09:26:30;;;;;;;3.75;2.22;;;9.60;99.90;;;8.13;100.00;99519.41;5001221;28;20044;-77
2023/01/08 09:28:57;;;;;;;3.75;2.10;;;9.70;99.90;;;8.12;100.00;99515.84;5009394;28;20408;-76
2023/01/08 09:31:24;;;;;;;4.50;2.30;;;9.70;99.90;;;8.09;100.00;99515.47;5001615;28;20061;-76
2023/01/08 09:33:50;;;;;;;3.50;2.15;;;9.70;99.90;;;8.11;100.00;99519.63;4993023;28;20160;-76
2023/01/08 09:36:17;;;;;;;4.43;2.20;;;9.70;99.90;;;8.19;100.00;99534.78;4993113;28;20074;-76
2023/01/08 09:38:44;;;;;;;4.95;2.95;;;9.70;99.90;;;8.24;100.00;99526.78;4993918;28;20052;-75
2023/01/08 09:41:29;;;;;;;4.20;2.30;;;9.80;99.90;;;8.37;100.00;99514.91;4993336;28;20137;-75
2023/01/08 09:43:58;;;;;;;6.20;2.83;;;9.90;99.90;;;8.67;100.00;99522.25;5008009;28;20061;-74
2023/01/08 09:46:27;;;;;;;3.42;2.13;;;10.20;99.90;;;9.07;100.00;99518.09;5007873;28;20137;-74
2023/01/08 09:48:58;;;;;;;3.33;2.00;;;10.60;99.90;;;9.19;100.00;99527.09;4993606;28;20044;-73
2023/01/08 09:51:33;;;;;;;2.70;1.80;;;10.80;99.90;;;9.18;100.00;99530.03;4993537;28;20049;-73
2023/01/08 09:54:00;;;;;;;2.83;1.60;;;10.80;99.90;;;9.09;100.00;99524.13;4992231;28;20034;-73
2023/01/08 09:56:27;;;;;;;3.00;1.80;;;10.80;99.90;;;9.05;100.00;99520.22;5008722;28;20057;-74
2023/01/08 09:58:58;;;;;;;3.20;1.80;;;10.70;99.90;;;8.89;100.00;99525.28;5007284;28;20338;-74
2023/01/08 10:01:29;;;;;;;3.53;1.80;;;10.60;99.90;;;8.74;100.00;99514.00;4993558;28;20045;-73
2023/01/08 10:04:17;;;;;;;2.58;1.45;;;10.40;99.90;;;8.66;100.00;99517.88;5008335;28;20120;-74
2023/01/08 10:07:20;;;;;;;2.80;1.42;;;10.30;99.90;;;8.54;100.00;99520.56;4993219;28;20366;-75
2023/01/08 10:09:49;;;;;;;2.00;1.27;;;10.10;99.90;;;8.48;100.00;99516.84;4998383;28;20137;-74
2023/01/08 10:12:29;;;;;;;3.78;1.30;;;10.00;99.90;;;8.49;100.00;99517.69;4993145;28;20093;-73
2023/01/08 10:15:01;;;;;;;1.90;1.10;;;10.00;99.90;;;8.51;100.00;99520.22;5011616;28;20104;-74
2023/01/08 10:17:40;;;;;;;2.22;1.30;;;10.00;99.90;;;8.48;100.00;99516.03;4991274;28;20064;-74
2023/01/08 10:20:19;;;;;;;2.13;1.10;;;10.00;99.90;;;8.46;100.00;99513.50;4993166;28;20117;-74
2023/01/08 10:22:47;;;;;;;2.85;1.40;;;10.00;99.90;;;8.54;100.00;99514.31;4993334;28;20164;-74
2023/01/08 10:25:23;;;;;;;1.77;1.20;;;10.00;99.90;;;8.62;100.00;99509.38;5011360;28;20141;-75
2023/01/08 10:28:01;;;;;;;1.77;1.17;;;10.10;99.90;;;8.70;100.00;99500.03;5005809;28;20045;-76
2023/01/08 10:30:30;;;;;;;1.95;1.13;;;10.20;99.90;;;8.71;100.00;99495.44;4997442;28;20074;-74
2023/01/08 10:33:04;;;;;;;1.88;1.23;;;10.30;99.90;;;8.78;100.00;99491.56;5011152;28;20033;-76
2023/01/08 10:35:41;;;;;;;1.77;1.00;;;10.30;99.90;;;8.81;100.00;99494.88;4997225;28;20048;-77
2023/01/08 10:38:28;;;;;;;1.70;1.10;;;10.40;99.90;;;8.76;100.00;99485.53;4998242;28;20069;-76
2023/01/08 10:40:55;;;;;;;2.50;1.27;;;10.40;99.90;;;8.83;100.00;99501.72;5003318;28;20074;-75